createdAt,value
2023-04-01T14:27:04.457Z,0.25
2023-04-01T14:30:28.000Z,0.30
2023-04-01T14:33:52.258Z,0.40
2023-04-01T14:37:16.520Z,0.30
2023-04-01T14:40:18.428Z,0.30
2023-04-01T14:43:36.507Z,0.32
2023-04-01T14:46:45.806Z,0.33
2023-04-01T14:49:49.531Z,0.30
2023-04-01T14:53:12.277Z,0.40
2023-04-01T14:56:15.724Z,0.47
2023-04-01T14:59:23.128Z,0.50
2023-04-01T15:02:46.730Z,0.40
2023-04-01T15:06:26.022Z,0.30
2023-04-01T15:09:30.682Z,0.40
2023-04-01T15:12:45.795Z,0.30
2023-04-01T15:16:01.118Z,0.20
2023-04-01T15:19:36.102Z,0.50
2023-04-01T15:22:39.437Z,0.25
2023-04-01T15:25:46.691Z,0.40
2023-04-01T15:28:58.257Z,0.50
2023-04-01T15:32:21.095Z,0.40
2023-04-01T15:35:43.152Z,0.35
2023-04-01T15:38:58.743Z,0.32
2023-04-01T15:42:34.353Z,0.52
2023-04-01T15:45:46.602Z,0.90
2023-04-01T15:48:58.411Z,1.00
2023-04-01T15:52:10.393Z,1.08
2023-04-01T15:55:27.842Z,0.70
2023-04-01T15:58:29.266Z,0.93
2023-04-01T16:01:56.088Z,0.85
2023-04-01T16:05:22.097Z,0.88
2023-04-01T16:08:54.281Z,1.50
2023-04-01T16:12:22.800Z,1.00
2023-04-01T16:15:56.213Z,1.05
2023-04-01T16:19:03.777Z,1.10
2023-04-01T16:22:28.025Z,1.10
2023-04-01T16:25:32.545Z,1.20
2023-04-01T16:28:41.075Z,1.20
2023-04-01T16:32:01.674Z,1.40
2023-04-01T16:38:32.014Z,1.10
2023-04-01T16:41:38.073Z,1.20
2023-04-01T16:44:57.622Z,1.30
2023-04-01T16:48:11.236Z,1.17
2023-04-01T16:51:17.069Z,1.05
2023-04-01T16:54:18.502Z,1.13
2023-04-01T16:57:26.394Z,1.13
2023-04-01T17:00:46.375Z,1.17
2023-04-01T17:03:58.264Z,1.10
2023-04-01T17:07:49.410Z,0.85
2023-04-01T17:10:58.870Z,0.80
2023-04-01T17:14:29.936Z,1.10
2023-04-01T17:17:40.614Z,1.05
2023-04-01T17:20:55.052Z,0.90
2023-04-01T17:24:05.103Z,0.95
2023-04-01T17:27:28.726Z,0.90
2023-04-01T17:30:56.832Z,1.00
2023-04-01T17:34:20.191Z,0.90
2023-04-01T17:37:30.103Z,0.82
2023-04-01T17:41:30.839Z,0.88
2023-04-01T17:48:08.095Z,0.80
2023-04-01T17:51:27.442Z,0.80
2023-04-01T17:54:44.943Z,0.80
2023-04-01T17:58:23.828Z,0.90
2023-04-01T18:01:47.492Z,0.85
2023-04-01T18:04:49.008Z,0.90
2023-04-01T18:08:05.302Z,0.70
2023-04-01T18:11:13.229Z,0.80
2023-04-01T18:14:28.900Z,0.80
2023-04-01T18:17:47.058Z,0.88
2023-04-01T18:21:31.010Z,1.10
2023-04-01T18:25:02.136Z,0.80
2023-04-01T18:28:09.536Z,0.73
2023-04-01T18:31:18.158Z,0.85
2023-04-01T18:34:19.661Z,0.60
2023-04-01T18:37:30.443Z,0.90
2023-04-01T18:40:43.289Z,1.00
2023-04-01T18:43:59.308Z,0.80
2023-04-01T18:47:38.258Z,0.80
2023-04-01T18:50:44.680Z,0.80
2023-04-01T18:53:58.088Z,0.70
2023-04-01T18:57:11.937Z,0.98
2023-04-01T19:00:37.725Z,0.70
2023-04-01T19:03:57.999Z,0.90
2023-04-01T19:07:02.916Z,1.00
2023-04-01T19:10:26.562Z,1.08
2023-04-01T19:13:43.179Z,0.80
2023-04-01T19:16:56.265Z,0.90
2023-04-01T19:20:14.657Z,0.70
2023-04-01T19:23:51.061Z,0.70
2023-04-01T19:27:07.934Z,0.93
2023-04-01T19:30:30.353Z,0.75
2023-04-01T19:34:00.624Z,0.95
2023-04-01T19:37:26.938Z,0.70
2023-04-01T19:40:43.946Z,0.95
2023-04-01T19:43:56.577Z,0.70
2023-04-01T19:47:12.728Z,0.68
2023-04-01T19:51:08.691Z,0.65
2023-04-01T19:54:18.430Z,1.05
2023-04-01T19:57:50.504Z,1.03
2023-04-01T20:00:55.079Z,0.90
2023-04-01T20:04:04.442Z,0.70
2023-04-01T20:07:21.104Z,0.82
2023-04-01T20:10:43.704Z,0.57
2023-04-01T20:14:17.706Z,0.60
2023-04-01T20:17:32.260Z,0.70
2023-04-01T20:20:35.171Z,1.05
2023-04-01T20:23:48.529Z,0.60
2023-04-01T20:27:09.148Z,0.63
2023-04-01T20:30:36.878Z,0.60
2023-04-01T20:34:08.944Z,0.60
2023-04-01T20:37:40.481Z,0.60
2023-04-01T20:40:56.094Z,0.60
2023-04-01T20:44:35.226Z,0.60
2023-04-01T20:48:06.128Z,0.70
2023-04-01T20:54:42.390Z,0.63
2023-04-01T20:57:58.838Z,0.60
2023-04-01T21:01:38.978Z,0.70
2023-04-01T21:05:08.255Z,0.70
2023-04-01T21:08:44.054Z,0.75
2023-04-01T21:12:00.394Z,0.70
2023-04-01T21:15:35.597Z,0.85
2023-04-01T21:19:13.782Z,0.70
2023-04-01T21:22:34.014Z,0.73
2023-04-01T21:25:35.739Z,0.70
2023-04-01T21:28:49.683Z,0.70
2023-04-01T21:31:54.238Z,0.70
2023-04-01T21:35:26.674Z,0.80
2023-04-01T21:38:46.717Z,0.60
2023-04-01T21:42:02.581Z,0.80
2023-04-01T21:45:13.230Z,0.60
2023-04-01T21:48:48.564Z,0.68
2023-04-01T21:52:19.736Z,0.68
2023-04-01T21:55:24.254Z,0.90
2023-04-01T21:58:31.521Z,0.80
2023-04-01T22:01:42.433Z,1.48
2023-04-01T22:04:59.805Z,1.10
2023-04-01T22:08:21.036Z,1.20
2023-04-01T22:11:37.531Z,1.10
2023-04-01T22:15:02.327Z,1.27
2023-04-01T22:18:18.841Z,0.85
2023-04-01T22:21:39.179Z,0.88
2023-04-01T22:25:22.841Z,0.88
